Time;durP1;ratioP1;P1;durP2;ratioP2;P2;SDS_P1;SDS_P2;PMS_P1;PMS_P2;Temp;Humidity;BMP_temperature;BMP_pressure;BME280_temperature;BME280_humidity;BME280_pressure;Samples;Min_cycle;Max_cycle;Signal;HPM_P1;HPM_P2
2021/08/17 00:01:47;;;;;;;50.58;29.67;;;13.10;90.10;;;;;;5028077;28;20034;-74
2021/08/17 00:04:13;;;;;;;52.15;29.35;;;13.10;90.00;;;;;;5031309;28;20038;-73
2021/08/17 00:06:39;;;;;;;53.42;28.88;;;13.10;90.10;;;;;;5019916;28;20056;-73
2021/08/17 00:09:05;;;;;;;57.55;30.70;;;13.10;90.20;;;;;;5030705;28;20173;-73
2021/08/17 00:11:30;;;;;;;52.53;28.75;;;13.10;90.20;;;;;;5024870;28;20033;-79
2021/08/17 00:13:56;;;;;;;58.05;29.50;;;13.20;90.20;;;;;;5030846;28;20037;-73
2021/08/17 00:16:22;;;;;;;51.63;28.70;;;13.20;90.20;;;;;;5029519;28;20040;-72
2021/08/17 00:18:48;;;;;;;58.03;30.13;;;13.30;90.20;;;;;;5027842;28;20040;-75
2021/08/17 00:21:15;;;;;;;52.58;28.85;;;13.20;90.10;;;;;;5030135;28;20377;-73
2021/08/17 00:23:40;;;;;;;51.65;28.17;;;13.30;90.20;;;;;;5029171;28;20032;-73
2021/08/17 00:26:06;;;;;;;52.85;27.13;;;13.30;90.10;;;;;;5029190;28;20034;-76
2021/08/17 00:28:32;;;;;;;50.03;27.52;;;13.30;90.10;;;;;;5026159;28;20053;-73
2021/08/17 00:30:58;;;;;;;46.47;27.10;;;13.30;90.10;;;;;;5025733;28;20044;-73
2021/08/17 00:33:24;;;;;;;44.97;25.92;;;13.30;90.10;;;;;;5025918;28;20084;-72
2021/08/17 00:35:52;;;;;;;51.28;26.50;;;13.30;90.10;;;;;;5025182;28;20033;-72
2021/08/17 00:38:18;;;;;;;51.10;27.27;;;13.30;90.00;;;;;;5027229;28;20029;-74
2021/08/17 00:40:43;;;;;;;50.88;27.80;;;13.30;89.90;;;;;;5028529;28;20100;-73
2021/08/17 00:43:10;;;;;;;57.03;28.88;;;13.30;90.00;;;;;;5025519;28;20113;-72
2021/08/17 00:45:36;;;;;;;51.33;29.13;;;13.30;90.00;;;;;;5027227;28;20033;-75
2021/08/17 00:48:02;;;;;;;48.53;26.00;;;13.30;90.10;;;;;;5025326;28;20432;-73
2021/08/17 00:50:33;;;;;;;47.97;26.25;;;13.30;90.00;;;;;;5028655;28;20504;-75
2021/08/17 00:52:59;;;;;;;52.55;27.30;;;13.30;90.00;;;;;;5029383;28;20501;-75
2021/08/17 00:55:27;;;;;;;49.03;26.05;;;13.30;90.20;;;;;;5028317;28;20523;-73
2021/08/17 00:57:53;;;;;;;44.47;25.23;;;13.30;90.10;;;;;;5027926;28;20037;-74
2021/08/17 01:00:18;;;;;;;48.63;25.90;;;13.30;90.00;;;;;;5026711;28;20029;-73
2021/08/17 01:02:47;;;;;;;47.15;25.63;;;13.30;90.10;;;;;;5018816;28;20030;-73
2021/08/17 01:05:15;;;;;;;47.22;26.20;;;13.30;90.20;;;;;;5011738;28;20026;-74
2021/08/17 01:07:40;;;;;;;45.30;25.23;;;13.20;90.20;;;;;;5014719;28;20120;-74
2021/08/17 01:10:08;;;;;;;50.03;26.02;;;13.20;90.30;;;;;;5027713;28;20109;-74
2021/08/17 01:12:35;;;;;;;43.92;24.80;;;13.20;90.40;;;;;;5030266;28;20018;-74
2021/08/17 01:15:02;;;;;;;53.58;26.23;;;13.20;90.40;;;;;;5025491;28;20036;-72
2021/08/17 01:17:28;;;;;;;45.88;25.23;;;13.20;90.40;;;;;;5028440;28;20148;-74
2021/08/17 01:19:54;;;;;;;49.67;25.48;;;13.20;90.40;;;;;;5023452;28;20370;-73
2021/08/17 01:22:20;;;;;;;53.15;26.98;;;13.20;90.50;;;;;;5004941;28;20113;-73
2021/08/17 01:24:46;;;;;;;48.75;27.55;;;13.10;90.50;;;;;;5001401;28;20109;-75
2021/08/17 01:27:12;;;;;;;46.53;25.77;;;13.20;90.60;;;;;;4995234;28;20576;-75
2021/08/17 01:29:38;;;;;;;47.85;25.88;;;13.20;90.40;;;;;;4993813;28;20026;-74
2021/08/17 01:32:04;;;;;;;47.92;26.23;;;13.20;90.50;;;;;;5025277;28;20037;-73
2021/08/17 01:34:30;;;;;;;45.58;24.35;;;13.20;90.40;;;;;;5014203;28;20036;-73
2021/08/17 01:36:55;;;;;;;52.92;25.85;;;13.20;90.40;;;;;;5019838;28;20451;-73
2021/08/17 01:39:21;;;;;;;45.22;23.80;;;13.20;90.30;;;;;;5003749;28;20041;-74
2021/08/17 01:41:47;;;;;;;48.90;26.15;;;13.10;90.40;;;;;;4989913;28;20035;-74
2021/08/17 01:44:16;;;;;;;52.25;26.88;;;13.20;90.50;;;;;;4989529;28;20030;-74
2021/08/17 01:46:43;;;;;;;48.03;26.50;;;13.10;90.50;;;;;;4997617;28;20038;-76
2021/08/17 01:49:09;;;;;;;45.20;25.15;;;13.10;90.60;;;;;;5001306;28;20062;-76
2021/08/17 01:51:35;;;;;;;48.95;25.98;;;13.10;90.60;;;;;;4991649;28;20092;-73
2021/08/17 01:54:04;;;;;;;48.85;24.95;;;13.10;90.50;;;;;;5004579;28;20026;-73
2021/08/17 01:56:29;;;;;;;47.50;26.02;;;13.10;90.50;;;;;;4991723;28;20042;-73
2021/08/17 01:58:55;;;;;;;48.20;25.98;;;13.10;90.50;;;;;;4991860;28;20218;-72
2021/08/17 02:01:21;;;;;;;47.47;24.63;;;13.10;90.50;;;;;;5017964;28;20084;-75
2021/08/17 02:03:46;;;;;;;48.35;25.63;;;13.10;90.40;;;;;;4999574;28;20091;-73
2021/08/17 02:06:14;;;;;;;46.40;24.90;;;13.10;90.40;;;;;;5017107;28;20033;-74
2021/08/17 02:08:40;;;;;;;46.95;24.38;;;13.10;90.40;;;;;;4996899;28;20041;-74
2021/08/17 02:11:05;;;;;;;48.45;25.35;;;13.10;90.30;;;;;;4989021;28;20463;-73
2021/08/17 02:13:32;;;;;;;45.88;25.90;;;13.10;90.30;;;;;;4989573;28;20398;-74
2021/08/17 02:16:00;;;;;;;49.72;26.08;;;13.00;90.20;;;;;;4990440;28;20046;-73
2021/08/17 02:18:32;;;;;;;47.00;25.58;;;13.00;90.10;;;;;;5001833;28;20044;-73
2021/08/17 02:20:59;;;;;;;51.65;25.85;;;13.00;90.10;;;;;;5008437;28;20021;-73
2021/08/17 02:23:26;;;;;;;47.88;24.40;;;13.00;90.20;;;;;;5001436;28;20111;-73
2021/08/17 02:25:52;;;;;;;46.53;24.30;;;13.00;90.20;;;;;;5002083;28;20474;-73
2021/08/17 02:28:19;;;;;;;46.20;25.48;;;12.90;90.10;;;;;;4996370;28;20490;-73
2021/08/17 02:30:46;;;;;;;46.70;25.45;;;13.00;90.20;;;;;;4992766;28;20022;-74
2021/08/17 02:33:11;;;;;;;51.25;25.85;;;12.90;90.10;;;;;;5001977;28;20037;-73
2021/08/17 02:35:37;;;;;;;45.85;23.80;;;12.90;90.00;;;;;;5008985;28;20408;-72
2021/08/17 02:38:05;;;;;;;44.75;23.08;;;12.90;90.00;;;;;;4995566;28;20422;-75
2021/08/17 02:40:31;;;;;;;48.08;25.05;;;12.90;90.00;;;;;;5000798;28;20025;-73
2021/08/17 02:42:57;;;;;;;49.38;25.25;;;12.90;89.90;;;;;;5030335;28;20028;-75
2021/08/17 02:45:22;;;;;;;48.00;24.95;;;12.90;89.90;;;;;;5028520;28;20037;-73
2021/08/17 02:47:48;;;;;;;48.17;24.33;;;12.80;89.80;;;;;;5022774;28;20095;-73
2021/08/17 02:50:13;;;;;;;47.05;25.05;;;12.80;89.70;;;;;;5030856;28;20033;-74
2021/08/17 02:52:39;;;;;;;48.60;24.40;;;12.80;89.70;;;;;;5027141;28;20041;-73
2021/08/17 02:55:07;;;;;;;49.95;25.25;;;12.80;89.70;;;;;;5037589;28;20051;-76
2021/08/17 02:57:33;;;;;;;49.90;23.92;;;12.80;89.60;;;;;;5040706;28;20030;-73
2021/08/17 02:59:58;;;;;;;44.58;23.80;;;12.80;89.50;;;;;;5038535;28;20079;-73
2021/08/17 03:02:24;;;;;;;47.72;24.70;;;12.80;89.60;;;;;;5046561;28;20020;-73
2021/08/17 03:04:50;;;;;;;49.35;24.67;;;12.80;89.40;;;;;;5032662;28;20368;-75
2021/08/17 03:07:15;;;;;;;47.35;24.33;;;12.80;89.40;;;;;;5033092;28;20487;-75
2021/08/17 03:09:41;;;;;;;46.35;24.40;;;12.80;89.30;;;;;;5032516;28;20060;-74
2021/08/17 03:12:08;;;;;;;44.17;23.65;;;12.80;89.30;;;;;;5040687;28;20416;-73
2021/08/17 03:14:33;;;;;;;44.50;25.20;;;12.80;89.20;;;;;;5039847;28;20086;-73
2021/08/17 03:16:59;;;;;;;43.33;23.60;;;12.80;89.20;;;;;;5022552;28;20056;-74
2021/08/17 03:19:25;;;;;;;46.10;23.85;;;12.70;89.20;;;;;;5026615;28;20041;-73
2021/08/17 03:21:50;;;;;;;47.03;24.23;;;12.70;89.20;;;;;;5024995;28;20068;-74
2021/08/17 03:24:16;;;;;;;46.00;23.98;;;12.70;89.30;;;;;;5027372;28;20461;-74
2021/08/17 03:26:42;;;;;;;46.40;24.17;;;12.70;89.20;;;;;;5043088;28;20048;-75
2021/08/17 03:29:08;;;;;;;46.25;23.42;;;12.70;89.10;;;;;;5040308;28;20037;-74
2021/08/17 03:31:33;;;;;;;45.80;24.55;;;12.70;89.10;;;;;;5037945;28;20031;-74
2021/08/17 03:33:59;;;;;;;43.78;23.23;;;12.70;89.00;;;;;;5051918;28;20112;-73
2021/08/17 03:36:25;;;;;;;45.72;23.27;;;12.70;89.00;;;;;;5036235;28;20503;-74
2021/08/17 03:38:50;;;;;;;47.55;23.27;;;12.60;89.00;;;;;;5041433;28;20018;-78
2021/08/17 03:41:16;;;;;;;47.92;25.00;;;12.60;89.10;;;;;;5032491;28;20032;-73
2021/08/17 03:43:42;;;;;;;43.88;23.13;;;12.60;89.30;;;;;;5032295;28;20028;-73
2021/08/17 03:46:08;;;;;;;49.05;24.20;;;12.60;89.30;;;;;;5039660;28;20018;-75
2021/08/17 03:48:34;;;;;;;49.65;24.83;;;12.60;89.30;;;;;;5031684;28;20037;-75
2021/08/17 03:51:00;;;;;;;46.40;24.67;;;12.60;89.20;;;;;;5031486;28;20467;-74
2021/08/17 03:53:26;;;;;;;47.60;25.30;;;12.60;89.10;;;;;;5029256;28;20035;-77
2021/08/17 03:55:53;;;;;;;47.05;23.90;;;12.60;89.20;;;;;;5031439;28;20033;-74
2021/08/17 03:58:18;;;;;;;43.13;23.55;;;12.60;89.10;;;;;;5043458;28;20345;-74
2021/08/17 04:00:44;;;;;;;48.03;23.52;;;12.60;89.20;;;;;;5044313;28;20026;-73
2021/08/17 04:03:10;;;;;;;49.15;23.30;;;12.60;89.20;;;;;;5040513;28;20112;-75
2021/08/17 04:05:36;;;;;;;47.70;23.90;;;12.60;89.20;;;;;;5036921;28;20025;-74
2021/08/17 04:08:04;;;;;;;43.78;23.30;;;12.50;89.30;;;;;;5035995;28;20064;-76
2021/08/17 04:10:30;;;;;;;49.70;25.30;;;12.60;89.30;;;;;;5036907;28;20017;-73
2021/08/17 04:12:56;;;;;;;47.75;24.00;;;12.50;89.40;;;;;;5049640;28;20357;-74
2021/08/17 04:15:21;;;;;;;43.63;22.95;;;12.50;89.40;;;;;;5029556;28;20036;-72
2021/08/17 04:17:47;;;;;;;45.28;23.60;;;12.50;89.40;;;;;;5030397;28;20526;-73
2021/08/17 04:20:13;;;;;;;45.83;23.45;;;12.50;89.50;;;;;;5042303;28;20080;-73
2021/08/17 04:22:39;;;;;;;42.15;22.83;;;12.40;89.50;;;;;;5033141;28;20025;-75
2021/08/17 04:25:05;;;;;;;46.78;22.90;;;12.40;89.40;;;;;;5036223;28;20025;-73
2021/08/17 04:27:31;;;;;;;45.75;22.65;;;12.40;89.50;;;;;;5040009;28;20128;-73
2021/08/17 04:29:57;;;;;;;44.45;21.77;;;12.40;89.50;;;;;;5046709;28;20028;-75
2021/08/17 04:32:23;;;;;;;47.30;22.50;;;12.40;89.50;;;;;;5030314;28;20463;-74
2021/08/17 04:34:49;;;;;;;49.38;24.33;;;12.40;89.50;;;;;;5041874;28;20074;-73
2021/08/17 04:37:14;;;;;;;42.97;23.38;;;12.40;89.40;;;;;;5029011;28;20450;-74
2021/08/17 04:39:40;;;;;;;42.67;22.80;;;12.40;89.40;;;;;;5048442;28;20041;-80
2021/08/17 04:42:06;;;;;;;44.25;22.77;;;12.50;89.50;;;;;;5038374;28;20026;-79
2021/08/17 04:44:32;;;;;;;43.08;23.33;;;12.40;89.50;;;;;;5030608;28;20464;-73
2021/08/17 04:46:58;;;;;;;40.95;22.30;;;12.50;89.50;;;;;;5019057;28;20030;-73
2021/08/17 04:49:23;;;;;;;43.83;24.13;;;12.50;89.50;;;;;;5031959;28;20032;-73
2021/08/17 04:51:49;;;;;;;47.05;23.55;;;12.50;89.40;;;;;;5038426;28;20049;-73
2021/08/17 04:54:15;;;;;;;42.15;23.45;;;12.60;89.50;;;;;;5029403;28;20417;-73
2021/08/17 04:56:41;;;;;;;39.28;20.90;;;12.60;89.40;;;;;;5028787;28;20120;-75
2021/08/17 04:59:06;;;;;;;39.03;20.92;;;12.60;89.40;;;;;;5040174;28;20108;-74
2021/08/17 05:01:32;;;;;;;41.95;21.73;;;12.60;89.40;;;;;;5029908;28;20029;-76
2021/08/17 05:03:58;;;;;;;46.67;22.92;;;12.60;89.40;;;;;;5029986;28;20032;-73
2021/08/17 05:06:24;;;;;;;42.80;22.67;;;12.60;89.30;;;;;;5042062;28;20066;-74
2021/08/17 05:08:50;;;;;;;42.63;21.52;;;12.60;89.50;;;;;;5033997;28;20124;-74
2021/08/17 05:11:16;;;;;;;43.17;22.02;;;12.60;89.40;;;;;;5041677;28;20273;-73
2021/08/17 05:13:42;;;;;;;41.35;22.15;;;12.70;89.20;;;;;;5037941;28;20028;-74
2021/08/17 05:16:08;;;;;;;42.47;22.52;;;12.80;89.00;;;;;;5040485;28;20017;-73
2021/08/17 05:18:35;;;;;;;41.92;21.90;;;12.80;88.80;;;;;;5049913;28;20353;-77
2021/08/17 05:21:01;;;;;;;41.08;22.25;;;12.80;88.70;;;;;;5030488;28;20116;-73
2021/08/17 05:23:27;;;;;;;44.40;22.17;;;12.90;88.70;;;;;;5030315;28;20033;-72
2021/08/17 05:25:53;;;;;;;38.97;19.67;;;13.00;88.60;;;;;;5039388;28;20025;-74
2021/08/17 05:28:19;;;;;;;39.15;20.10;;;13.10;88.40;;;;;;5031965;28;20140;-74
2021/08/17 05:30:44;;;;;;;46.95;21.63;;;13.10;88.20;;;;;;5034424;28;20018;-73
2021/08/17 05:33:10;;;;;;;37.72;21.13;;;13.10;88.10;;;;;;5026048;28;20080;-73
2021/08/17 05:35:36;;;;;;;38.72;20.70;;;13.20;88.00;;;;;;5029616;28;20080;-73
2021/08/17 05:38:01;;;;;;;42.85;21.02;;;13.30;87.80;;;;;;5038727;28;20037;-75
2021/08/17 05:40:27;;;;;;;32.45;18.33;;;13.40;87.70;;;;;;5028401;28;20039;-75
2021/08/17 05:42:53;;;;;;;34.03;19.00;;;13.50;87.50;;;;;;5027885;28;20053;-72
2021/08/17 05:45:19;;;;;;;38.35;20.40;;;13.60;87.20;;;;;;5041971;28;20025;-73
2021/08/17 05:47:46;;;;;;;33.17;18.00;;;13.60;86.90;;;;;;5016390;28;20048;-75
2021/08/17 05:50:13;;;;;;;33.78;19.45;;;13.60;86.60;;;;;;5030242;28;20477;-71
2021/08/17 05:52:39;;;;;;;34.22;17.42;;;13.70;86.60;;;;;;5029919;28;20505;-72
2021/08/17 05:55:06;;;;;;;34.75;18.40;;;13.80;86.60;;;;;;5026156;28;20121;-71
2021/08/17 05:57:32;;;;;;;35.67;18.67;;;13.90;86.30;;;;;;5016230;28;20064;-72
2021/08/17 05:59:58;;;;;;;33.08;17.52;;;14.00;85.80;;;;;;5042507;28;20053;-71
2021/08/17 06:02:24;;;;;;;33.20;18.25;;;14.10;85.90;;;;;;5036559;28;20029;-72
2021/08/17 06:04:49;;;;;;;30.08;17.88;;;14.20;85.60;;;;;;5042484;28;20037;-72
2021/08/17 06:07:18;;;;;;;30.80;16.88;;;14.50;85.00;;;;;;5048585;28;20041;-71
2021/08/17 06:09:44;;;;;;;31.33;17.55;;;14.60;84.00;;;;;;5030103;28;20026;-71
2021/08/17 06:12:10;;;;;;;28.92;17.63;;;14.60;84.00;;;;;;5036967;28;20028;-71
2021/08/17 06:14:37;;;;;;;30.63;17.27;;;14.60;84.10;;;;;;5035443;28;20369;-71
2021/08/17 06:17:03;;;;;;;28.60;17.40;;;14.70;83.70;;;;;;5038516;28;20048;-71
2021/08/17 06:19:29;;;;;;;31.20;18.38;;;14.80;83.90;;;;;;5047227;28;20056;-71
2021/08/17 06:21:55;;;;;;;31.63;16.65;;;14.80;83.30;;;;;;5037949;28;20477;-71
2021/08/17 06:24:20;;;;;;;31.50;16.58;;;14.80;83.30;;;;;;5031608;28;20045;-72
2021/08/17 06:26:46;;;;;;;29.35;17.10;;;14.80;83.60;;;;;;5026999;28;20038;-75
2021/08/17 06:29:12;;;;;;;30.38;17.25;;;14.90;83.20;;;;;;5039248;28;20017;-70
2021/08/17 06:31:38;;;;;;;29.02;16.95;;;15.00;83.10;;;;;;5034098;28;20039;-70
2021/08/17 06:34:03;;;;;;;26.83;16.55;;;15.10;82.90;;;;;;5037415;28;20044;-70
2021/08/17 06:36:29;;;;;;;30.30;16.42;;;15.00;82.90;;;;;;5028417;28;20147;-70
2021/08/17 06:38:55;;;;;;;25.17;16.63;;;15.10;83.10;;;;;;5027847;28;20057;-71
2021/08/17 06:41:21;;;;;;;26.17;15.20;;;15.10;82.80;;;;;;5027751;28;20033;-71
2021/08/17 06:43:47;;;;;;;23.48;15.10;;;15.10;82.30;;;;;;5028311;28;20443;-74
2021/08/17 06:46:13;;;;;;;25.65;14.30;;;15.20;82.40;;;;;;5024167;28;20113;-70
2021/08/17 06:48:39;;;;;;;29.33;16.20;;;15.30;82.20;;;;;;5019400;28;20129;-70
2021/08/17 06:51:05;;;;;;;25.33;15.68;;;15.30;82.10;;;;;;5027256;28;20025;-71
2021/08/17 06:53:31;;;;;;;24.95;15.38;;;15.30;82.10;;;;;;5033612;28;20029;-73
2021/08/17 06:55:56;;;;;;;25.08;14.75;;;15.30;82.20;;;;;;5033840;28;20120;-70
2021/08/17 06:58:22;;;;;;;29.05;15.23;;;15.30;82.40;;;;;;5035018;28;20104;-71
2021/08/17 07:00:48;;;;;;;25.63;14.23;;;15.30;82.30;;;;;;5026641;28;20447;-75
2021/08/17 07:03:15;;;;;;;25.20;14.68;;;15.40;82.30;;;;;;5027187;28;20129;-73
2021/08/17 07:05:43;;;;;;;26.05;14.75;;;15.40;82.20;;;;;;5035107;28;20029;-70
2021/08/17 07:08:10;;;;;;;24.33;14.30;;;15.40;82.10;;;;;;5034233;28;20135;-70
2021/08/17 07:10:36;;;;;;;23.85;14.05;;;15.40;82.10;;;;;;5027014;28;20749;-70
2021/08/17 07:13:03;;;;;;;20.83;13.85;;;15.40;82.30;;;;;;5041950;28;20024;-70
2021/08/17 07:15:28;;;;;;;24.13;14.10;;;15.40;81.50;;;;;;5044223;28;20040;-72
2021/08/17 07:17:54;;;;;;;23.02;13.88;;;15.40;82.30;;;;;;5040835;28;20064;-75
2021/08/17 07:20:20;;;;;;;21.75;13.90;;;15.50;82.00;;;;;;5027645;28;20033;-71
2021/08/17 07:22:46;;;;;;;24.42;14.32;;;15.50;81.90;;;;;;5027004;28;20378;-72
2021/08/17 07:25:12;;;;;;;21.42;13.25;;;15.70;81.90;;;;;;5032975;28;20026;-71
2021/08/17 07:27:38;;;;;;;22.23;12.98;;;15.90;80.80;;;;;;5027384;28;20042;-71
2021/08/17 07:30:07;;;;;;;22.40;13.15;;;16.10;80.70;;;;;;5031810;28;20079;-72
2021/08/17 07:32:33;;;;;;;22.65;12.43;;;16.40;79.90;;;;;;5024631;28;20037;-71
2021/08/17 07:34:59;;;;;;;20.33;12.32;;;16.70;79.10;;;;;;5027727;28;20022;-73
2021/08/17 07:37:25;;;;;;;20.85;12.38;;;16.80;77.50;;;;;;5027252;28;20033;-74
2021/08/17 07:39:51;;;;;;;20.95;12.40;;;16.60;77.40;;;;;;5033917;28;20484;-73
2021/08/17 07:42:17;;;;;;;22.73;13.55;;;16.40;78.60;;;;;;5047109;28;20040;-72
2021/08/17 07:44:42;;;;;;;21.60;12.75;;;16.30;79.20;;;;;;5032998;28;20056;-74
2021/08/17 07:47:08;;;;;;;17.77;11.82;;;16.40;78.70;;;;;;5028938;28;20033;-73
2021/08/17 07:49:34;;;;;;;24.77;13.18;;;16.50;79.10;;;;;;5040646;28;20028;-72
2021/08/17 07:52:00;;;;;;;21.90;12.75;;;16.60;77.70;;;;;;5028204;28;20065;-73
2021/08/17 07:54:27;;;;;;;21.35;12.27;;;16.70;78.20;;;;;;5026486;28;21159;-72
2021/08/17 07:56:53;;;;;;;19.83;11.88;;;16.80;76.70;;;;;;5034040;28;20044;-73
2021/08/17 07:59:19;;;;;;;21.23;12.13;;;16.90;77.10;;;;;;5025970;28;20029;-73
2021/08/17 08:01:45;;;;;;;23.77;12.40;;;16.90;77.70;;;;;;5029100;28;20029;-73
2021/08/17 08:04:10;;;;;;;21.65;12.27;;;17.00;77.30;;;;;;5046969;28;20442;-71
2021/08/17 08:06:36;;;;;;;19.77;11.32;;;17.00;76.60;;;;;;5035679;28;20032;-72
2021/08/17 08:09:03;;;;;;;20.50;12.48;;;17.00;76.50;;;;;;5038328;28;20104;-72
2021/08/17 08:11:29;;;;;;;18.63;11.15;;;17.10;77.10;;;;;;5040120;28;20043;-72
2021/08/17 08:13:57;;;;;;;17.83;12.07;;;17.30;75.70;;;;;;5040007;28;20519;-74
2021/08/17 08:16:26;;;;;;;20.33;12.05;;;17.50;75.10;;;;;;5033612;28;20140;-75
2021/08/17 08:18:51;;;;;;;16.77;11.00;;;17.50;74.50;;;;;;5040427;28;20029;-77
2021/08/17 08:21:17;;;;;;;21.55;11.80;;;17.60;75.30;;;;;;5032685;28;20029;-72
2021/08/17 08:23:43;;;;;;;21.38;11.90;;;17.60;74.90;;;;;;5029860;28;20049;-71
2021/08/17 08:26:09;;;;;;;19.33;10.52;;;17.80;74.40;;;;;;5030321;28;20035;-72
2021/08/17 08:28:35;;;;;;;16.75;10.18;;;18.10;71.70;;;;;;5035109;28;20045;-71
2021/08/17 08:31:01;;;;;;;21.00;11.00;;;18.30;71.10;;;;;;5037690;28;20694;-72
2021/08/17 08:33:26;;;;;;;22.00;11.00;;;18.20;71.70;;;;;;5038868;28;20121;-72
2021/08/17 08:35:52;;;;;;;18.42;9.55;;;18.10;72.20;;;;;;5050567;28;20471;-74
2021/08/17 08:38:18;;;;;;;14.40;9.25;;;17.90;71.80;;;;;;5016495;28;20053;-71
2021/08/17 08:40:45;;;;;;;18.17;10.60;;;17.70;73.10;;;;;;5043926;28;20030;-72
2021/08/17 08:43:12;;;;;;;19.15;10.57;;;17.60;72.50;;;;;;5038268;28;20064;-72
2021/08/17 08:45:38;;;;;;;18.92;9.82;;;17.30;73.20;;;;;;5035446;28;20025;-71
2021/08/17 08:48:05;;;;;;;14.75;10.00;;;17.20;72.20;;;;;;5018769;28;20121;-71
2021/08/17 08:50:34;;;;;;;17.88;10.30;;;17.10;72.60;;;;;;5029502;28;20101;-73
2021/08/17 08:53:00;;;;;;;18.27;11.10;;;16.90;73.90;;;;;;5037064;28;20033;-71
2021/08/17 08:55:26;;;;;;;23.65;12.02;;;16.80;74.20;;;;;;5032343;28;20381;-71
2021/08/17 08:57:52;;;;;;;17.75;11.40;;;16.70;74.90;;;;;;5050204;28;20033;-71
2021/08/17 09:00:18;;;;;;;18.95;11.70;;;16.80;75.30;;;;;;5033033;28;20032;-71
2021/08/17 09:02:44;;;;;;;16.90;11.32;;;16.80;74.40;;;;;;5040121;28;20025;-71
2021/08/17 09:05:10;;;;;;;16.80;10.27;;;16.70;74.20;;;;;;5045452;28;20033;-74
2021/08/17 09:07:46;;;;;;;17.13;10.68;;;16.60;73.90;;;;;;5040376;28;20033;-71
2021/08/17 09:10:17;;;;;;;20.08;11.25;;;16.70;74.10;;;;;;5035737;28;20025;-73
2021/08/17 09:12:53;;;;;;;18.30;11.27;;;16.60;73.70;;;;;;5033961;28;20033;-72
2021/08/17 09:15:38;;;;;;;19.38;11.70;;;16.60;74.50;;;;;;5028470;28;20437;-73
2021/08/17 09:18:09;;;;;;;19.50;10.80;;;16.60;74.60;;;;;;5033592;28;20464;-72
2021/08/17 09:20:42;;;;;;;18.98;11.07;;;16.70;74.60;;;;;;5049862;28;20086;-71
2021/08/17 09:23:28;;;;;;;16.75;11.15;;;16.70;74.50;;;;;;5031357;28;20041;-71
2021/08/17 09:25:58;;;;;;;19.33;11.20;;;16.90;74.40;;;;;;5029244;28;20108;-72
2021/08/17 09:28:36;;;;;;;18.35;11.38;;;17.00;73.90;;;;;;5041931;28;20057;-72
2021/08/17 09:31:38;;;;;;;22.73;11.02;;;17.00;73.90;;;;;;5030671;28;20088;-71
2021/08/17 09:34:05;;;;;;;17.63;10.73;;;17.00;74.50;;;;;;5018297;28;20036;-71
2021/08/17 09:36:42;;;;;;;17.27;11.80;;;17.00;74.40;;;;;;5029460;28;20057;-71
2021/08/17 09:39:09;;;;;;;19.58;11.23;;;16.80;73.80;;;;;;5042039;28;20060;-71
2021/08/17 09:41:35;;;;;;;17.33;11.30;;;16.80;74.30;;;;;;5029473;28;20029;-72
2021/08/17 09:44:09;;;;;;;17.17;11.13;;;16.80;74.90;;;;;;5041983;28;20090;-73
2021/08/17 09:46:37;;;;;;;21.23;12.20;;;16.70;75.30;;;;;;5027877;28;20039;-72
2021/08/17 09:49:18;;;;;;;19.15;11.88;;;16.60;75.60;;;;;;5027015;28;20045;-72
2021/08/17 09:51:44;;;;;;;22.15;12.15;;;16.70;75.80;;;;;;5029517;28;20021;-73
2021/08/17 09:54:21;;;;;;;18.50;11.48;;;16.60;75.10;;;;;;5035407;28;20274;-72
2021/08/17 09:57:01;;;;;;;19.73;11.30;;;16.60;76.20;;;;;;5028959;28;20087;-72
2021/08/17 09:59:29;;;;;;;19.40;11.73;;;16.60;76.10;;;;;;5048776;28;20025;-72
2021/08/17 10:01:57;;;;;;;19.63;10.18;;;16.60;76.20;;;;;;5036234;28;20033;-71
2021/08/17 10:04:23;;;;;;;18.80;9.88;;;16.50;75.70;;;;;;5038293;28;20044;-73
2021/08/17 10:06:56;;;;;;;15.98;10.02;;;16.60;75.70;;;;;;5041775;28;20017;-72
2021/08/17 10:09:26;;;;;;;17.27;8.88;;;16.60;75.80;;;;;;5034895;28;20060;-73
2021/08/17 10:11:52;;;;;;;14.27;8.43;;;16.60;75.40;;;;;;5027208;28;20029;-72
2021/08/17 10:14:18;;;;;;;15.65;8.85;;;16.60;75.40;;;;;;5028233;28;20025;-73
2021/08/17 10:16:45;;;;;;;17.20;9.68;;;16.50;76.00;;;;;;5027043;28;20028;-74
2021/08/17 10:19:13;;;;;;;14.25;8.95;;;16.50;76.90;;;;;;5025615;28;20053;-73
2021/08/17 10:21:40;;;;;;;16.38;9.07;;;16.50;78.10;;;;;;5038826;28;20040;-71
2021/08/17 10:24:27;;;;;;;17.10;9.25;;;16.50;77.90;;;;;;5033809;28;20016;-73
2021/08/17 10:27:17;;;;;;;17.42;9.93;;;16.40;78.60;;;;;;5026906;28;20030;-71
2021/08/17 10:29:58;;;;;;;14.63;9.00;;;16.30;78.80;;;;;;5026085;28;20562;-71
2021/08/17 10:32:40;;;;;;;14.32;9.10;;;16.30;78.40;;;;;;5038929;28;20166;-71
2021/08/17 10:35:07;;;;;;;15.27;9.27;;;16.40;78.70;;;;;;5013099;28;20350;-71
2021/08/17 10:37:35;;;;;;;17.10;9.90;;;16.50;78.60;;;;;;5026876;28;20508;-71
2021/08/17 10:40:02;;;;;;;15.55;9.32;;;16.60;78.20;;;;;;5038983;28;20349;-72
2021/08/17 10:42:28;;;;;;;13.70;9.48;;;16.70;77.50;;;;;;5028245;28;20026;-70
2021/08/17 10:45:14;;;;;;;12.52;8.82;;;16.60;77.40;;;;;;5048108;28;20029;-72
2021/08/17 10:47:40;;;;;;;14.82;9.52;;;16.70;76.60;;;;;;5030576;28;20523;-73
2021/08/17 10:50:06;;;;;;;15.20;9.05;;;16.70;76.90;;;;;;5035964;28;20028;-73
2021/08/17 10:52:40;;;;;;;14.20;8.35;;;16.80;77.00;;;;;;5033925;28;20048;-75
2021/08/17 10:55:36;;;;;;;13.55;8.63;;;16.70;75.70;;;;;;5027782;28;20036;-75
2021/08/17 10:58:05;;;;;;;14.30;8.52;;;16.80;76.40;;;;;;5028018;28;20423;-73
2021/08/17 11:00:52;;;;;;;18.20;9.45;;;16.80;76.80;;;;;;5031038;28;20117;-71
2021/08/17 11:03:43;;;;;;;14.15;9.15;;;16.90;77.50;;;;;;5024741;28;20026;-71
2021/08/17 11:06:10;;;;;;;16.63;8.75;;;17.10;77.70;;;;;;5025854;28;20416;-73
2021/08/17 11:08:38;;;;;;;15.05;9.15;;;17.20;77.30;;;;;;5020717;28;20037;-73
2021/08/17 11:11:24;;;;;;;13.93;8.75;;;17.20;77.00;;;;;;5021827;28;20067;-71
2021/08/17 11:14:04;;;;;;;15.95;8.88;;;17.20;78.10;;;;;;5030099;28;20112;-72
2021/08/17 11:16:31;;;;;;;14.95;8.50;;;17.30;77.60;;;;;;5039891;28;20063;-71
2021/08/17 11:18:59;;;;;;;12.85;8.55;;;17.40;76.90;;;;;;5034916;28;20596;-71
2021/08/17 11:21:37;;;;;;;14.88;8.40;;;17.40;77.00;;;;;;5026733;28;20029;-73
2021/08/17 11:24:07;;;;;;;15.95;8.35;;;17.10;76.90;;;;;;5031630;28;20116;-73
2021/08/17 11:26:33;;;;;;;12.80;8.25;;;17.10;76.90;;;;;;5027337;28;20029;-71
2021/08/17 11:28:59;;;;;;;13.85;7.85;;;17.10;78.10;;;;;;5035179;28;20045;-71
2021/08/17 11:31:25;;;;;;;12.63;7.88;;;17.20;78.50;;;;;;5030368;28;20044;-72
2021/08/17 11:34:14;;;;;;;15.60;8.57;;;17.30;78.40;;;;;;5046460;28;20033;-72
2021/08/17 11:36:40;;;;;;;13.02;7.63;;;17.10;78.50;;;;;;5040672;28;20264;-72
2021/08/17 11:39:29;;;;;;;12.57;8.25;;;16.90;78.70;;;;;;5025737;28;20025;-76
2021/08/17 11:41:55;;;;;;;12.77;8.55;;;17.10;79.30;;;;;;5038069;28;20113;-71
2021/08/17 11:44:21;;;;;;;15.13;9.15;;;17.30;78.90;;;;;;5028112;28;20045;-74
2021/08/17 11:46:47;;;;;;;13.45;8.27;;;17.40;78.90;;;;;;5026520;28;20140;-71
2021/08/17 11:49:25;;;;;;;13.70;8.02;;;17.50;78.90;;;;;;5034052;28;20114;-72
2021/08/17 11:51:59;;;;;;;14.25;8.75;;;17.70;78.60;;;;;;5030670;28;20057;-72
2021/08/17 11:54:24;;;;;;;13.20;7.60;;;17.80;78.90;;;;;;5037496;28;20034;-72
2021/08/17 11:56:58;;;;;;;10.73;7.07;;;17.80;78.10;;;;;;5037596;28;20033;-72
2021/08/17 11:59:25;;;;;;;14.77;7.57;;;17.80;78.20;;;;;;5029775;28;20113;-72
2021/08/17 12:02:00;;;;;;;11.13;7.10;;;17.50;77.50;;;;;;5030915;28;20195;-71
2021/08/17 12:04:27;;;;;;;10.48;6.13;;;17.40;78.50;;;;;;5050918;28;20036;-72
2021/08/17 12:07:05;;;;;;;13.57;7.00;;;17.10;78.00;;;;;;5046665;28;20108;-75
2021/08/17 12:09:38;;;;;;;11.77;6.90;;;17.10;78.90;;;;;;5033710;28;20041;-72
2021/08/17 12:12:04;;;;;;;11.25;7.55;;;17.10;79.80;;;;;;5025997;28;20482;-74
2021/08/17 12:14:30;;;;;;;11.52;7.10;;;17.10;79.40;;;;;;5036110;28;20385;-72
2021/08/17 12:16:57;;;;;;;10.35;7.05;;;17.10;80.60;;;;;;5039259;28;20029;-71
2021/08/17 12:19:23;;;;;;;12.10;6.82;;;17.20;80.80;;;;;;5033844;28;20037;-72
2021/08/17 12:21:49;;;;;;;11.05;7.03;;;17.40;80.00;;;;;;5041079;28;20026;-74
2021/08/17 12:24:29;;;;;;;13.38;8.35;;;17.40;79.60;;;;;;5036134;28;20037;-71
2021/08/17 12:27:03;;;;;;;11.80;7.82;;;17.60;80.40;;;;;;5030875;28;20033;-72
2021/08/17 12:29:42;;;;;;;12.27;7.88;;;17.60;78.80;;;;;;5039183;28;20924;-75
2021/08/17 12:32:25;;;;;;;12.45;8.73;;;17.60;80.20;;;;;;5030030;28;20075;-72